Time;durP1;ratioP1;P1;durP2;ratioP2;P2;SDS_P1;SDS_P2;PMS_P1;PMS_P2;Temp;Humidity;BMP_temperature;BMP_pressure;BME280_temperature;BME280_humidity;BME280_pressure;Samples;Min_cycle;Max_cycle;Signal;HPM_P1;HPM_P2
2023/07/25 00:01:00;;;;;;;7.13;2.97;;;13.00;99.90;;;;;;5072952;28;20549;-64
2023/07/25 00:03:25;;;;;;;9.27;3.45;;;13.00;99.90;;;;;;5091964;28;20111;-64
2023/07/25 00:05:51;;;;;;;8.93;3.13;;;13.00;99.90;;;;;;5091922;28;20043;-61
2023/07/25 00:08:17;;;;;;;8.30;3.22;;;13.00;99.90;;;;;;5091752;28;20040;-61
2023/07/25 00:10:42;;;;;;;8.18;2.85;;;13.00;99.90;;;;;;5091508;28;20032;-61
2023/07/25 00:13:08;;;;;;;7.05;2.30;;;13.10;99.90;;;;;;5092081;28;20039;-62
2023/07/25 00:15:34;;;;;;;8.48;2.67;;;13.10;99.90;;;;;;5089974;28;20044;-61
2023/07/25 00:17:59;;;;;;;6.15;2.63;;;13.10;99.90;;;;;;5091911;28;20050;-61
2023/07/25 00:20:25;;;;;;;8.75;3.17;;;13.10;99.90;;;;;;5092156;28;20047;-61
2023/07/25 00:22:51;;;;;;;8.57;2.72;;;13.20;99.90;;;;;;5123333;28;20445;-61
2023/07/25 00:25:18;;;;;;;9.20;3.03;;;13.20;99.90;;;;;;5125003;28;20040;-61
2023/07/25 00:27:44;;;;;;;9.25;2.83;;;13.20;99.90;;;;;;5073560;28;20465;-61
2023/07/25 00:30:10;;;;;;;7.40;2.40;;;13.30;99.90;;;;;;5091196;28;20085;-61
2023/07/25 00:32:35;;;;;;;9.32;3.03;;;13.30;99.90;;;;;;5107106;28;20040;-61
2023/07/25 00:35:02;;;;;;;8.57;2.78;;;13.30;99.90;;;;;;5092011;28;20032;-61
2023/07/25 00:37:31;;;;;;;5.78;2.40;;;13.30;99.90;;;;;;5091110;28;20051;-61
2023/07/25 00:39:57;;;;;;;8.32;3.67;;;13.40;99.90;;;;;;5124593;28;20039;-62
2023/07/25 00:42:23;;;;;;;7.32;3.00;;;13.40;99.90;;;;;;5091781;28;20036;-61
2023/07/25 00:44:50;;;;;;;9.38;2.40;;;13.40;99.90;;;;;;5090119;28;20497;-62
2023/07/25 00:47:17;;;;;;;9.38;3.17;;;13.50;99.90;;;;;;5091930;28;20028;-63
2023/07/25 00:49:45;;;;;;;8.18;2.85;;;13.50;99.90;;;;;;5091339;28;20107;-64
2023/07/25 00:52:11;;;;;;;10.93;3.00;;;13.50;99.90;;;;;;5073319;28;20461;-64
2023/07/25 00:54:45;;;;;;;11.18;3.22;;;13.50;99.90;;;;;;5091622;28;20119;-64
2023/07/25 00:57:11;;;;;;;8.63;3.55;;;13.50;99.90;;;;;;5091073;28;20106;-64
2023/07/25 00:59:37;;;;;;;6.80;3.08;;;13.50;99.90;;;;;;5093009;28;20052;-64
2023/07/25 01:02:03;;;;;;;9.65;2.75;;;13.60;99.90;;;;;;5095188;28;20055;-64
2023/07/25 01:04:29;;;;;;;7.93;2.75;;;13.60;99.90;;;;;;5093278;28;20044;-64
2023/07/25 01:06:56;;;;;;;13.75;3.15;;;13.60;99.90;;;;;;5093825;28;20059;-64
2023/07/25 01:10:00;;;;;;;8.60;3.55;;;13.60;99.90;;;;;;5094175;28;20047;-64
2023/07/25 01:12:26;;;;;;;10.05;3.35;;;13.60;99.90;;;;;;5012097;28;20045;-64
2023/07/25 01:14:52;;;;;;;8.80;3.58;;;13.60;99.90;;;;;;4996444;28;20041;-64
2023/07/25 01:17:21;;;;;;;10.57;2.63;;;13.60;99.90;;;;;;5040733;28;20076;-65
2023/07/25 01:19:48;;;;;;;9.20;3.40;;;13.70;99.90;;;;;;5092802;28;20048;-64
2023/07/25 01:22:14;;;;;;;9.85;2.90;;;13.60;99.90;;;;;;5094820;28;20032;-64
2023/07/25 01:24:47;;;;;;;9.68;3.08;;;13.70;99.90;;;;;;5094557;28;20043;-64
2023/07/25 01:27:14;;;;;;;7.63;2.90;;;13.70;99.90;;;;;;5093064;28;20573;-64
2023/07/25 01:29:40;;;;;;;10.95;2.92;;;13.60;99.90;;;;;;5094354;28;20070;-64
2023/07/25 01:32:07;;;;;;;9.05;3.50;;;13.60;99.90;;;;;;5093569;28;20075;-64
2023/07/25 01:34:32;;;;;;;13.65;3.78;;;13.60;99.90;;;;;;5092756;28;20047;-64
2023/07/25 01:36:58;;;;;;;11.35;3.10;;;13.60;99.90;;;;;;5093792;28;20052;-61
2023/07/25 01:39:24;;;;;;;10.25;2.92;;;13.70;99.90;;;;;;5092829;28;20044;-61
2023/07/25 01:41:49;;;;;;;10.63;3.15;;;13.70;99.90;;;;;;5094198;28;20471;-61
2023/07/25 01:44:15;;;;;;;11.10;3.55;;;13.70;99.90;;;;;;5076797;28;20051;-61
2023/07/25 01:46:41;;;;;;;8.63;2.97;;;13.70;99.90;;;;;;5093390;28;20071;-62
2023/07/25 01:49:10;;;;;;;12.88;3.20;;;13.70;99.90;;;;;;5094938;28;20044;-64
2023/07/25 01:51:36;;;;;;;9.57;3.00;;;13.70;99.90;;;;;;5092788;28;20091;-64
2023/07/25 01:54:01;;;;;;;10.48;2.85;;;13.60;99.90;;;;;;5091900;28;20075;-64
2023/07/25 01:56:27;;;;;;;7.75;2.72;;;13.70;99.90;;;;;;5127349;27;20040;-64
2023/07/25 01:58:53;;;;;;;6.78;2.83;;;13.70;99.90;;;;;;5094353;28;20032;-64
2023/07/25 02:01:18;;;;;;;6.15;2.67;;;13.70;99.90;;;;;;5092300;28;20043;-64
2023/07/25 02:03:45;;;;;;;8.63;3.28;;;13.60;99.90;;;;;;5075480;28;20047;-64
2023/07/25 02:06:10;;;;;;;6.75;2.70;;;13.60;99.90;;;;;;5094481;28;20032;-64
2023/07/25 02:08:36;;;;;;;8.75;2.95;;;13.70;99.90;;;;;;5091790;28;20094;-64
2023/07/25 02:11:02;;;;;;;7.70;3.17;;;13.70;99.90;;;;;;5093651;28;20043;-64
2023/07/25 02:13:28;;;;;;;9.35;2.65;;;13.70;99.90;;;;;;5093993;28;20040;-64
2023/07/25 02:15:54;;;;;;;9.07;3.05;;;13.70;99.90;;;;;;5093498;28;20040;-64
2023/07/25 02:18:19;;;;;;;8.70;3.35;;;13.70;99.90;;;;;;5109520;28;20043;-64
2023/07/25 02:20:45;;;;;;;8.18;3.00;;;13.70;99.90;;;;;;5093390;28;20048;-63
2023/07/25 02:23:10;;;;;;;7.68;3.63;;;13.70;99.90;;;;;;5093227;28;20040;-64
2023/07/25 02:25:36;;;;;;;13.35;3.70;;;13.80;99.90;;;;;;5093745;28;20111;-64
2023/07/25 02:28:02;;;;;;;10.20;2.70;;;13.80;99.90;;;;;;5092536;28;20491;-64
2023/07/25 02:30:27;;;;;;;7.60;2.40;;;13.80;99.90;;;;;;5091588;28;20385;-64
2023/07/25 02:32:53;;;;;;;14.93;3.33;;;13.80;99.90;;;;;;5126269;27;20093;-64
2023/07/25 02:35:19;;;;;;;11.30;3.13;;;13.80;99.90;;;;;;5093670;28;20499;-64
2023/07/25 02:37:44;;;;;;;7.22;2.92;;;13.80;99.90;;;;;;5092676;28;20122;-63
2023/07/25 02:40:10;;;;;;;7.40;2.75;;;13.80;99.90;;;;;;5126397;27;20515;-64
2023/07/25 02:42:36;;;;;;;8.10;2.40;;;13.80;99.90;;;;;;5074914;28;20036;-63
2023/07/25 02:45:02;;;;;;;6.72;2.25;;;13.80;99.90;;;;;;5108501;28;20111;-64
2023/07/25 02:47:27;;;;;;;7.20;2.78;;;13.80;99.90;;;;;;5093307;28;20039;-64
2023/07/25 02:49:53;;;;;;;9.25;2.55;;;13.70;99.90;;;;;;5125072;27;20552;-64
2023/07/25 02:52:19;;;;;;;13.35;2.95;;;13.70;99.90;;;;;;5125998;27;20055;-63
2023/07/25 02:54:44;;;;;;;10.73;2.97;;;13.60;99.90;;;;;;5091574;28;20125;-64
2023/07/25 02:57:13;;;;;;;7.35;2.40;;;13.60;99.90;;;;;;5074561;28;20044;-64
2023/07/25 02:59:39;;;;;;;8.40;2.05;;;13.60;99.90;;;;;;5091746;28;20121;-64
2023/07/25 03:02:05;;;;;;;10.43;2.92;;;13.50;99.90;;;;;;5093075;28;20077;-64
2023/07/25 03:04:30;;;;;;;8.85;2.15;;;13.40;99.90;;;;;;5090567;28;20097;-64
2023/07/25 03:06:56;;;;;;;9.18;3.35;;;13.40;99.90;;;;;;5091531;28;20043;-64
2023/07/25 03:09:22;;;;;;;5.80;2.10;;;13.40;99.90;;;;;;5093356;28;20039;-63
2023/07/25 03:11:47;;;;;;;9.55;2.33;;;13.30;99.90;;;;;;5091388;28;20082;-64
2023/07/25 03:14:13;;;;;;;7.65;2.63;;;13.30;99.90;;;;;;5125927;27;20458;-64
2023/07/25 03:16:39;;;;;;;6.05;2.28;;;13.30;99.90;;;;;;5125899;27;20036;-64
2023/07/25 03:19:04;;;;;;;8.98;2.40;;;13.20;99.90;;;;;;5091987;28;20157;-64
2023/07/25 03:21:30;;;;;;;7.35;2.10;;;13.20;99.90;;;;;;5090248;28;20093;-64
2023/07/25 03:23:56;;;;;;;6.93;2.35;;;13.20;99.90;;;;;;5091271;28;20117;-64
2023/07/25 03:26:21;;;;;;;8.30;3.38;;;13.10;99.90;;;;;;5092204;28;20036;-64
2023/07/25 03:28:47;;;;;;;10.02;2.85;;;13.10;99.90;;;;;;5092398;28;20622;-64
2023/07/25 03:31:13;;;;;;;8.35;2.13;;;13.10;99.90;;;;;;5091536;28;20044;-64
2023/07/25 03:33:38;;;;;;;6.65;2.63;;;13.10;99.90;;;;;;5091610;28;20408;-64
2023/07/25 03:36:05;;;;;;;6.15;2.00;;;13.10;99.90;;;;;;5091260;28;20044;-64
2023/07/25 03:38:31;;;;;;;7.93;2.40;;;13.10;99.90;;;;;;5091215;28;20036;-65
2023/07/25 03:40:56;;;;;;;7.65;2.38;;;13.00;99.90;;;;;;5090497;28;20044;-64
2023/07/25 03:43:22;;;;;;;7.13;2.20;;;13.00;99.90;;;;;;5091316;28;20481;-64
2023/07/25 03:45:48;;;;;;;8.23;2.78;;;12.90;99.90;;;;;;5091961;28;20036;-64
2023/07/25 03:48:14;;;;;;;6.22;2.20;;;12.90;99.90;;;;;;5091658;28;20468;-64
2023/07/25 03:50:39;;;;;;;6.80;2.60;;;12.80;99.90;;;;;;5091776;28;20048;-64
2023/07/25 03:53:05;;;;;;;11.20;2.80;;;12.80;99.90;;;;;;5091559;28;20048;-64
2023/07/25 03:55:31;;;;;;;6.63;2.97;;;12.70;99.90;;;;;;5092308;28;20075;-64
2023/07/25 03:57:56;;;;;;;8.57;2.40;;;12.70;99.90;;;;;;5092072;28;20542;-64
2023/07/25 04:00:22;;;;;;;5.75;2.78;;;12.70;99.90;;;;;;5091373;28;20105;-64
2023/07/25 04:02:48;;;;;;;9.27;2.83;;;12.60;99.90;;;;;;5091599;28;20075;-64
2023/07/25 04:05:14;;;;;;;6.65;2.60;;;12.60;99.90;;;;;;5092004;28;20032;-61
2023/07/25 04:07:40;;;;;;;9.50;2.97;;;12.60;99.90;;;;;;5089741;28;20075;-61
2023/07/25 04:10:06;;;;;;;9.15;2.55;;;12.60;99.90;;;;;;5092373;28;20476;-61
2023/07/25 04:12:32;;;;;;;8.88;2.63;;;12.60;99.90;;;;;;5073724;28;20059;-62
2023/07/25 04:14:58;;;;;;;8.50;2.53;;;12.60;99.90;;;;;;5091160;28;20044;-62
2023/07/25 04:17:24;;;;;;;6.78;2.08;;;12.60;99.90;;;;;;5092138;28;20498;-61
2023/07/25 04:19:49;;;;;;;9.80;2.80;;;12.60;99.90;;;;;;5091574;28;20122;-61
2023/07/25 04:22:15;;;;;;;11.00;3.45;;;12.70;99.90;;;;;;5091159;28;20125;-62
2023/07/25 04:24:41;;;;;;;11.15;2.83;;;12.70;99.90;;;;;;5090611;28;20040;-62
2023/07/25 04:27:06;;;;;;;10.48;3.08;;;12.60;99.90;;;;;;5092442;28;20040;-61
2023/07/25 04:29:32;;;;;;;10.48;2.90;;;12.60;99.90;;;;;;5090561;28;20498;-62
2023/07/25 04:31:57;;;;;;;8.23;3.20;;;12.70;99.90;;;;;;5092252;28;20044;-61
2023/07/25 04:34:23;;;;;;;8.00;2.83;;;12.60;99.90;;;;;;5078203;28;20039;-62
2023/07/25 04:36:49;;;;;;;12.13;3.40;;;12.70;99.90;;;;;;5093384;28;20101;-61
2023/07/25 04:39:15;;;;;;;7.50;2.80;;;12.70;99.90;;;;;;5096107;28;20082;-61
2023/07/25 04:41:40;;;;;;;8.80;2.67;;;12.70;99.90;;;;;;5095150;28;20064;-61
2023/07/25 04:44:06;;;;;;;11.27;3.10;;;12.70;99.90;;;;;;5128119;27;20097;-62
2023/07/25 04:46:32;;;;;;;9.75;2.80;;;12.70;99.90;;;;;;5095631;28;20370;-61
2023/07/25 04:48:58;;;;;;;10.77;3.63;;;12.80;99.90;;;;;;5128222;27;20036;-61
2023/07/25 04:51:24;;;;;;;13.95;2.55;;;12.80;99.90;;;;;;5094598;28;20079;-61
2023/07/25 04:53:50;;;;;;;7.90;3.05;;;12.80;99.90;;;;;;5094189;28;20044;-61
2023/07/25 04:56:15;;;;;;;7.82;2.83;;;12.90;99.90;;;;;;5077381;28;20051;-61
2023/07/25 04:58:41;;;;;;;8.05;2.45;;;13.00;99.90;;;;;;5110423;27;20446;-62
2023/07/25 05:01:08;;;;;;;9.30;2.45;;;13.00;99.90;;;;;;5094219;28;20036;-61
2023/07/25 05:03:33;;;;;;;6.88;2.60;;;13.10;99.90;;;;;;5093273;28;20097;-61
2023/07/25 05:05:59;;;;;;;8.82;2.90;;;13.10;99.90;;;;;;5127982;27;20039;-61
2023/07/25 05:08:25;;;;;;;7.82;2.65;;;13.20;99.90;;;;;;5094629;28;20032;-61
2023/07/25 05:10:52;;;;;;;7.65;2.17;;;13.20;99.90;;;;;;5127032;27;20040;-61
2023/07/25 05:13:18;;;;;;;5.88;2.22;;;13.20;99.90;;;;;;5127872;27;20047;-61
2023/07/25 05:15:44;;;;;;;7.47;1.83;;;13.30;99.90;;;;;;5093768;28;20083;-61
2023/07/25 05:18:09;;;;;;;8.82;2.25;;;13.40;99.90;;;;;;5093185;28;20501;-62
2023/07/25 05:20:35;;;;;;;9.82;2.50;;;13.40;99.90;;;;;;5110909;28;20048;-61
2023/07/25 05:23:01;;;;;;;9.15;2.75;;;13.50;99.90;;;;;;5110205;28;20118;-61
2023/07/25 05:25:27;;;;;;;6.47;1.83;;;13.60;99.90;;;;;;5093419;28;20408;-61
2023/07/25 05:27:52;;;;;;;7.57;2.03;;;13.70;99.90;;;;;;5094329;28;20495;-61
2023/07/25 05:30:18;;;;;;;8.20;1.90;;;13.70;99.90;;;;;;5094744;28;20089;-61
2023/07/25 05:32:44;;;;;;;7.35;2.50;;;13.80;99.90;;;;;;5093788;28;20439;-62
2023/07/25 05:35:13;;;;;;;14.20;2.65;;;13.90;99.90;;;;;;5088857;28;20447;-64
2023/07/25 05:37:39;;;;;;;5.00;1.67;;;14.10;99.90;;;;;;5094742;28;20047;-61
2023/07/25 05:40:06;;;;;;;7.22;1.80;;;14.20;99.90;;;;;;5094217;28;20032;-61
2023/07/25 05:42:31;;;;;;;8.75;2.20;;;14.30;99.90;;;;;;5092840;28;20093;-62
2023/07/25 05:44:59;;;;;;;6.38;1.65;;;14.50;99.90;;;;;;5093589;28;20036;-62
2023/07/25 05:47:25;;;;;;;7.03;1.58;;;14.60;99.90;;;;;;5093634;28;20036;-62
2023/07/25 05:49:51;;;;;;;5.35;1.42;;;14.70;99.90;;;;;;5092801;28;20095;-62
2023/07/25 05:52:17;;;;;;;8.07;1.65;;;14.80;99.90;;;;;;5095064;28;20071;-62
2023/07/25 05:54:46;;;;;;;7.05;1.83;;;14.90;99.90;;;;;;5092080;28;20076;-62
2023/07/25 05:57:12;;;;;;;5.82;1.48;;;15.00;99.90;;;;;;5098392;28;20031;-62
2023/07/25 05:59:40;;;;;;;6.43;1.50;;;15.10;99.90;;;;;;5101430;27;20098;-62
2023/07/25 06:02:07;;;;;;;6.30;2.00;;;15.20;99.90;;;;;;5092994;28;20442;-62
2023/07/25 06:04:33;;;;;;;6.22;1.80;;;15.30;99.90;;;;;;5094003;28;20040;-62
2023/07/25 06:06:59;;;;;;;4.47;1.40;;;15.40;99.90;;;;;;5075325;28;20507;-62
2023/07/25 06:09:25;;;;;;;4.65;1.13;;;15.50;99.90;;;;;;5093351;28;20044;-62
2023/07/25 06:11:51;;;;;;;5.68;1.23;;;15.60;99.90;;;;;;5092484;28;20093;-62
2023/07/25 06:14:16;;;;;;;4.07;1.50;;;15.60;99.90;;;;;;5093687;28;20118;-62
2023/07/25 06:16:42;;;;;;;2.72;0.88;;;15.70;99.90;;;;;;5092641;28;20141;-62
2023/07/25 06:19:08;;;;;;;5.53;1.45;;;15.70;99.90;;;;;;5092810;28;20051;-61
2023/07/25 06:21:34;;;;;;;3.97;0.90;;;15.80;99.90;;;;;;5091671;28;20110;-62
2023/07/25 06:23:59;;;;;;;3.38;1.20;;;15.80;99.90;;;;;;5093665;28;20093;-62
2023/07/25 06:26:25;;;;;;;3.45;1.05;;;15.90;99.90;;;;;;5094023;28;20110;-62
2023/07/25 06:28:52;;;;;;;3.83;1.15;;;16.10;99.90;;;;;;5091368;28;20036;-62
2023/07/25 06:31:18;;;;;;;3.60;0.90;;;16.30;99.90;;;;;;5092692;28;20051;-62
2023/07/25 06:33:43;;;;;;;3.55;1.02;;;16.40;99.90;;;;;;5092509;28;20423;-62
2023/07/25 06:36:09;;;;;;;3.53;1.20;;;16.60;99.90;;;;;;5125386;27;20479;-62
2023/07/25 06:38:35;;;;;;;3.30;0.93;;;16.60;99.90;;;;;;5125085;27;20085;-62
2023/07/25 06:41:00;;;;;;;3.80;1.00;;;16.60;99.90;;;;;;5091964;28;20040;-62
2023/07/25 06:43:26;;;;;;;6.22;1.15;;;16.50;99.90;;;;;;5093196;28;20066;-62
2023/07/25 06:45:53;;;;;;;3.85;0.70;;;16.40;99.90;;;;;;5089296;28;20435;-62
2023/07/25 06:48:18;;;;;;;3.50;0.80;;;16.40;99.90;;;;;;5091305;28;20040;-62
2023/07/25 06:50:45;;;;;;;5.35;1.20;;;16.30;99.90;;;;;;5091605;28;20052;-62
2023/07/25 06:53:11;;;;;;;3.15;0.98;;;16.30;99.90;;;;;;5092273;28;20446;-62
2023/07/25 06:55:37;;;;;;;4.50;1.40;;;16.40;99.90;;;;;;5091657;28;20035;-62
2023/07/25 06:58:03;;;;;;;3.38;0.90;;;16.50;99.90;;;;;;5089158;28;20118;-62
2023/07/25 07:00:29;;;;;;;1.98;0.80;;;16.60;99.90;;;;;;5090808;28;20111;-62
2023/07/25 07:02:55;;;;;;;2.75;0.85;;;16.60;99.90;;;;;;5090552;28;20044;-62
2023/07/25 07:05:20;;;;;;;4.63;0.90;;;16.60;99.90;;;;;;5093046;28;20039;-62
2023/07/25 07:07:46;;;;;;;3.70;1.38;;;16.60;99.90;;;;;;5092239;28;20039;-62
2023/07/25 07:10:12;;;;;;;4.88;1.40;;;16.70;99.90;;;;;;5080519;28;20041;-62
2023/07/25 07:12:45;;;;;;;4.65;1.10;;;16.80;99.90;;;;;;5084747;28;20043;-63
2023/07/25 07:15:14;;;;;;;4.63;1.27;;;16.80;99.90;;;;;;5088490;28;20116;-62
2023/07/25 07:17:41;;;;;;;7.78;1.50;;;16.80;99.90;;;;;;5089051;28;20040;-63
2023/07/25 07:20:08;;;;;;;3.90;1.00;;;16.90;99.90;;;;;;5088730;28;20048;-63
2023/07/25 07:22:33;;;;;;;7.43;1.42;;;16.90;99.90;;;;;;5089182;28;20504;-63
2023/07/25 07:24:59;;;;;;;4.53;1.50;;;16.80;99.90;;;;;;5087464;28;20052;-63
2023/07/25 07:27:25;;;;;;;6.75;1.85;;;16.80;99.90;;;;;;5089535;28;20132;-63
2023/07/25 07:29:52;;;;;;;9.07;1.45;;;16.70;99.90;;;;;;5089442;28;20480;-63
2023/07/25 07:32:18;;;;;;;5.53;1.25;;;16.80;99.90;;;;;;5121030;27;20396;-63
2023/07/25 07:34:44;;;;;;;7.45;1.35;;;16.90;99.90;;;;;;5086345;28;20036;-63
2023/07/25 07:37:10;;;;;;;8.20;1.42;;;16.80;99.90;;;;;;5088199;28;20089;-63
2023/07/25 07:39:37;;;;;;;4.38;1.40;;;16.80;99.90;;;;;;5088175;28;20493;-63
2023/07/25 07:42:03;;;;;;;5.18;1.30;;;16.90;99.90;;;;;;5087504;28;20051;-63
2023/07/25 07:44:29;;;;;;;5.25;1.23;;;16.90;99.90;;;;;;5088672;28;20046;-62
2023/07/25 07:46:55;;;;;;;3.58;1.38;;;17.10;99.90;;;;;;5088065;28;20044;-62
2023/07/25 07:49:21;;;;;;;4.13;1.05;;;17.10;99.90;;;;;;5112752;27;20050;-62
2023/07/25 07:51:46;;;;;;;6.97;1.40;;;17.20;99.90;;;;;;5088459;28;20083;-62
2023/07/25 07:54:12;;;;;;;3.42;1.02;;;17.20;99.90;;;;;;5086447;28;20118;-63
2023/07/25 07:56:38;;;;;;;8.23;2.08;;;17.20;99.90;;;;;;5091491;28;20209;-62
2023/07/25 07:59:03;;;;;;;2.15;0.90;;;17.30;99.90;;;;;;5066991;28;20041;-63
2023/07/25 08:01:29;;;;;;;3.63;1.58;;;17.30;99.90;;;;;;5086275;28;20377;-62
2023/07/25 08:03:55;;;;;;;3.47;1.33;;;17.30;99.90;;;;;;5087532;28;20488;-62
2023/07/25 08:06:20;;;;;;;6.88;1.73;;;17.30;99.90;;;;;;5121760;28;20119;-63
2023/07/25 08:08:47;;;;;;;6.30;1.60;;;17.30;99.90;;;;;;5128362;27;20046;-62
2023/07/25 08:11:12;;;;;;;8.60;1.60;;;17.40;99.90;;;;;;5094152;28;20051;-62
2023/07/25 08:13:38;;;;;;;6.90;1.67;;;17.40;99.90;;;;;;5090925;28;20371;-62
2023/07/25 08:16:05;;;;;;;4.90;1.20;;;17.30;99.90;;;;;;5093755;28;20481;-62
2023/07/25 08:18:30;;;;;;;5.72;1.52;;;17.40;99.90;;;;;;5098203;28;20081;-62
2023/07/25 08:20:58;;;;;;;4.30;1.17;;;17.50;99.90;;;;;;5130614;27;20052;-62
2023/07/25 08:23:25;;;;;;;5.57;1.13;;;17.50;99.90;;;;;;5079388;28;20500;-62
2023/07/25 08:25:51;;;;;;;8.02;1.10;;;17.50;99.90;;;;;;5080154;28;20039;-62
2023/07/25 08:28:17;;;;;;;4.15;1.50;;;17.60;99.90;;;;;;5097660;28;20081;-62
2023/07/25 08:30:44;;;;;;;6.80;1.30;;;17.60;99.90;;;;;;5097298;28;20028;-62
2023/07/25 08:33:12;;;;;;;6.07;1.50;;;17.50;99.90;;;;;;5097590;28;20078;-62
2023/07/25 08:35:38;;;;;;;3.47;1.20;;;17.40;99.90;;;;;;5096687;28;20458;-63
2023/07/25 08:38:04;;;;;;;9.45;1.73;;;17.30;99.90;;;;;;5097379;28;20058;-63
2023/07/25 08:40:29;;;;;;;4.97;1.27;;;17.20;99.90;;;;;;5080351;28;20036;-62
2023/07/25 08:43:06;;;;;;;5.70;1.60;;;17.10;99.90;;;;;;5130679;27;20059;-62
2023/07/25 08:45:33;;;;;;;4.05;1.50;;;17.00;99.90;;;;;;5098519;28;20043;-62
2023/07/25 08:48:03;;;;;;;3.70;1.13;;;16.90;99.90;;;;;;5097354;28;20047;-62
2023/07/25 08:50:31;;;;;;;9.68;1.40;;;17.00;99.90;;;;;;5096140;28;20178;-62
2023/07/25 08:53:00;;;;;;;4.07;1.33;;;17.10;99.90;;;;;;5098588;28;20504;-62
2023/07/25 08:55:26;;;;;;;5.55;1.30;;;17.20;99.90;;;;;;5097905;28;20541;-62
2023/07/25 08:57:52;;;;;;;4.70;1.27;;;17.40;99.90;;;;;;5096504;28;20040;-63
2023/07/25 09:00:18;;;;;;;5.78;1.63;;;17.40;99.90;;;;;;5097637;28;20078;-63
2023/07/25 09:02:46;;;;;;;6.65;1.55;;;17.50;99.90;;;;;;5095958;28;20056;-63
2023/07/25 09:05:12;;;;;;;6.05;1.30;;;17.50;99.90;;;;;;5098648;28;20093;-63
2023/07/25 09:07:38;;;;;;;3.85;1.27;;;17.40;99.90;;;;;;5096608;28;20047;-63
2023/07/25 09:10:04;;;;;;;5.32;1.40;;;17.30;99.90;;;;;;5130468;27;20450;-63
2023/07/25 09:12:30;;;;;;;5.25;1.30;;;17.20;99.90;;;;;;5096927;28;20076;-64
2023/07/25 09:14:55;;;;;;;4.10;1.50;;;17.30;99.90;;;;;;5096802;28;20076;-63
2023/07/25 09:17:21;;;;;;;4.32;1.60;;;17.30;99.90;;;;;;5096829;28;20123;-63
2023/07/25 09:19:47;;;;;;;4.95;1.40;;;17.40;99.90;;;;;;5109462;28;20054;-64
2023/07/25 09:22:33;;;;;;;3.65;1.40;;;17.40;99.90;;;;;;5127799;27;20050;-63
2023/07/25 09:24:59;;;;;;;5.65;1.35;;;17.50;99.90;;;;;;5094277;28;20044;-63
2023/07/25 09:27:26;;;;;;;4.13;1.10;;;17.50;99.90;;;;;;5095769;28;20109;-63
2023/07/25 09:29:53;;;;;;;4.25;1.40;;;17.50;99.90;;;;;;5093302;28;20044;-63
2023/07/25 09:32:24;;;;;;;3.58;1.10;;;17.50;99.90;;;;;;5093387;28;20040;-64
2023/07/25 09:35:11;;;;;;;5.55;1.65;;;17.50;99.90;;;;;;5094710;28;20118;-64
2023/07/25 09:37:37;;;;;;;4.50;1.33;;;17.50;99.90;;;;;;5093378;28;20104;-63
2023/07/25 09:40:11;;;;;;;6.03;1.63;;;17.40;99.90;;;;;;5093190;28;20043;-64
2023/07/25 09:42:42;;;;;;;5.18;1.50;;;17.50;99.90;;;;;;5094414;28;20119;-63
2023/07/25 09:45:09;;;;;;;4.68;1.35;;;17.60;99.90;;;;;;5094331;28;20036;-64
2023/07/25 09:47:38;;;;;;;5.05;1.42;;;17.70;99.90;;;;;;5093268;28;20039;-64
2023/07/25 09:50:05;;;;;;;6.63;1.60;;;17.70;99.90;;;;;;5094255;28;20056;-64
2023/07/25 09:52:42;;;;;;;6.15;1.27;;;17.60;99.90;;;;;;5092269;28;20476;-64
2023/07/25 09:55:08;;;;;;;5.57;1.30;;;17.70;99.90;;;;;;5127418;27;20123;-64
2023/07/25 09:57:35;;;;;;;8.30;1.60;;;17.90;99.90;;;;;;5094494;28;20570;-63
2023/07/25 10:00:03;;;;;;;8.10;1.80;;;18.00;99.90;;;;;;5093719;28;20058;-63
2023/07/25 10:02:29;;;;;;;5.13;1.45;;;18.00;99.90;;;;;;5076308;28;20048;-62
2023/07/25 10:04:56;;;;;;;5.32;1.63;;;18.00;99.90;;;;;;5094262;28;20527;-63
2023/07/25 10:07:25;;;;;;;4.53;1.30;;;18.10;99.90;;;;;;5092543;28;20479;-63
2023/07/25 10:09:56;;;;;;;5.63;1.17;;;18.20;99.90;;;;;;5092782;28;20047;-63
2023/07/25 10:12:22;;;;;;;5.93;1.80;;;18.20;99.90;;;;;;5093200;28;20050;-63
2023/07/25 10:14:48;;;;;;;4.13;1.00;;;18.20;99.90;;;;;;5107214;28;20039;-63
2023/07/25 10:17:14;;;;;;;5.47;1.40;;;18.00;99.90;;;;;;5113559;28;20457;-63
2023/07/25 10:19:56;;;;;;;5.97;1.20;;;17.90;99.90;;;;;;5112285;28;20074;-63
2023/07/25 10:22:34;;;;;;;5.20;1.13;;;18.00;99.90;;;;;;5113239;28;20124;-63
2023/07/25 10:25:01;;;;;;;5.55;1.38;;;18.20;99.90;;;;;;5099870;28;20046;-63
2023/07/25 10:27:27;;;;;;;5.28;1.25;;;18.20;99.90;;;;;;5092172;28;20135;-63
2023/07/25 10:29:53;;;;;;;4.30;1.00;;;18.20;99.90;;;;;;5092278;28;20040;-62
2023/07/25 10:32:41;;;;;;;5.03;1.30;;;18.20;99.90;;;;;;5093794;28;20038;-63
2023/07/25 10:35:07;;;;;;;3.22;1.15;;;18.10;99.20;;;;;;5126128;27;20071;-63
2023/07/25 10:37:38;;;;;;;6.43;1.75;;;18.00;99.90;;;;;;5093640;28;20448;-63
2023/07/25 10:40:12;;;;;;;3.17;1.10;;;18.00;99.90;;;;;;5092649;28;20040;-63
2023/07/25 10:42:58;;;;;;;;;;;17.90;99.90;;;;;;5093344;28;20119;-63
2023/07/25 10:45:26;;;;;;;;;;;17.90;99.90;;;;;;5093799;28;20015;-63
2023/07/25 10:47:52;;;;;;;4.63;1.45;;;18.10;99.90;;;;;;5093330;28;20326;-63
2023/07/25 10:50:19;;;;;;;3.90;1.10;;;18.20;99.90;;;;;;5091556;28;20060;-64
2023/07/25 10:52:46;;;;;;;6.13;1.30;;;18.30;99.90;;;;;;5091614;28;20584;-63
2023/07/25 10:55:13;;;;;;;3.85;1.10;;;18.30;99.90;;;;;;5074414;28;20048;-63
2023/07/25 10:57:38;;;;;;;4.35;1.10;;;18.20;99.90;;;;;;5092018;28;20044;-62
2023/07/25 11:00:09;;;;;;;5.07;1.60;;;18.20;99.90;;;;;;5091788;28;20047;-63
2023/07/25 11:02:45;;;;;;;2.95;0.70;;;18.20;99.90;;;;;;5092508;28;20374;-63
2023/07/25 11:05:13;;;;;;;6.25;0.90;;;18.20;99.90;;;;;;5093114;28;20075;-64
2023/07/25 11:07:59;;;;;;;4.43;1.05;;;18.20;99.90;;;;;;5091753;28;20086;-63
2023/07/25 11:10:27;;;;;;;4.40;1.02;;;18.20;99.90;;;;;;5091139;28;20400;-63
2023/07/25 11:12:57;;;;;;;3.78;1.10;;;18.20;99.90;;;;;;5091620;28;20127;-63
2023/07/25 11:15:24;;;;;;;4.00;0.90;;;18.20;99.90;;;;;;5091957;28;20100;-62
2023/07/25 11:17:49;;;;;;;2.55;1.13;;;18.10;99.70;;;;;;5107077;28;20047;-63
2023/07/25 11:20:21;;;;;;;3.47;0.98;;;18.10;99.80;;;;;;5092930;28;20105;-62
2023/07/25 11:22:51;;;;;;;2.55;0.82;;;18.00;99.50;;;;;;5091978;28;20032;-62
2023/07/25 11:25:17;;;;;;;2.70;0.70;;;17.90;99.30;;;;;;5088275;28;20535;-62
2023/07/25 11:27:45;;;;;;;4.35;1.20;;;17.90;99.90;;;;;;5089768;28;20361;-63
2023/07/25 11:30:11;;;;;;;3.03;1.00;;;18.00;99.90;;;;;;5091864;28;20389;-62
2023/07/25 11:32:37;;;;;;;2.40;0.70;;;18.10;99.60;;;;;;5091810;28;20039;-62
2023/07/25 11:35:03;;;;;;;4.72;0.93;;;18.30;99.70;;;;;;5089763;28;20044;-62
2023/07/25 11:37:29;;;;;;;5.20;1.10;;;18.30;99.30;;;;;;5090763;28;20032;-62
2023/07/25 11:39:54;;;;;;;4.47;1.27;;;18.20;99.90;;;;;;5125064;27;20400;-62
2023/07/25 11:42:21;;;;;;;6.80;1.30;;;18.20;99.90;;;;;;5124970;27;20400;-61
2023/07/25 11:44:47;;;;;;;3.15;1.00;;;18.00;99.90;;;;;;5089757;28;20036;-62
2023/07/25 11:47:13;;;;;;;7.22;1.40;;;17.80;99.90;;;;;;5091358;28;20047;-62
2023/07/25 11:49:39;;;;;;;5.13;1.20;;;17.50;99.90;;;;;;5092052;28;20416;-62
2023/07/25 11:52:06;;;;;;;6.15;1.60;;;17.20;99.90;;;;;;5090889;28;20083;-62
2023/07/25 11:54:33;;;;;;;7.50;1.95;;;16.90;99.90;;;;;;5073491;28;20051;-62
2023/07/25 11:56:59;;;;;;;6.55;1.67;;;16.80;99.90;;;;;;5090113;28;20040;-62
2023/07/25 11:59:27;;;;;;;6.40;1.73;;;16.80;99.90;;;;;;5091357;28;20101;-62
2023/07/25 12:01:52;;;;;;;6.07;1.55;;;16.80;99.90;;;;;;5090118;28;20124;-62
2023/07/25 12:04:18;;;;;;;7.72;1.83;;;17.00;99.90;;;;;;5124846;27;20500;-62
2023/07/25 12:06:43;;;;;;;6.30;1.48;;;17.10;99.90;;;;;;5089944;28;20093;-62
2023/07/25 12:09:09;;;;;;;6.43;1.63;;;17.30;99.90;;;;;;5124399;28;20071;-63
2023/07/25 12:11:43;;;;;;;3.30;0.95;;;17.50;99.90;;;;;;5090055;28;20039;-62
2023/07/25 12:14:12;;;;;;;4.88;1.25;;;17.90;99.90;;;;;;5089765;28;20044;-62
2023/07/25 12:16:44;;;;;;;4.47;1.00;;;18.00;99.90;;;;;;5072090;28;20036;-62
2023/07/25 12:19:14;;;;;;;4.50;1.23;;;18.00;99.90;;;;;;5087321;28;20089;-62
2023/07/25 12:21:45;;;;;;;5.07;1.25;;;18.10;99.90;;;;;;5090910;28;20036;-64
2023/07/25 12:24:14;;;;;;;2.80;0.80;;;18.20;99.90;;;;;;5074225;28;20040;-63
2023/07/25 12:26:51;;;;;;;5.60;1.20;;;18.20;99.90;;;;;;5090437;28;20054;-63
2023/07/25 12:29:21;;;;;;;5.78;1.42;;;18.10;99.90;;;;;;5092261;28;20040;-63
2023/07/25 12:31:47;;;;;;;3.20;1.10;;;18.20;99.90;;;;;;5090618;28;20048;-63
2023/07/25 12:34:18;;;;;;;3.03;1.00;;;18.10;99.90;;;;;;5091473;28;20039;-61
2023/07/25 12:36:44;;;;;;;2.42;0.90;;;18.10;99.90;;;;;;5090710;28;20047;-63
2023/07/25 12:39:10;;;;;;;2.80;0.80;;;18.10;99.90;;;;;;5092118;28;20043;-63
2023/07/25 12:41:36;;;;;;;4.00;1.30;;;18.10;99.90;;;;;;5099737;28;20046;-62
2023/07/25 12:44:01;;;;;;;2.80;1.02;;;18.10;99.90;;;;;;5092903;28;20043;-63